Terminal Aerodrome Forecast
Issued by NWS

Home | Current Version | Previous Version | Text Only | Print | Product List | Glossary On
Versions: 1 2 3 4 5 6 7 8 9 10 11 12
661
FTUS46 KLOX 241732
TAFBUR
TAF
KBUR 241732Z 2418/2518 15008KT P6SM BKN120
     FM242000 18008KT P6SM BKN120
     FM250400 VRB05KT P6SM BKN120=

USA.gov is the U.S. government's official web portal to all federal, state and local government web resources and services.